createdAt,value
2022-11-21T00:00:32.197Z,100260.34
2022-11-21T00:03:01.429Z,100247.44
2022-11-21T00:05:29.217Z,100248.78
2022-11-21T00:07:56.478Z,100241.47
2022-11-21T00:10:24.226Z,100251.25
2022-11-21T00:12:55.297Z,100252.91
2022-11-21T00:15:22.288Z,100247.06
2022-11-21T00:17:48.748Z,100249.66
2022-11-21T00:20:15.922Z,100249.81
2022-11-21T00:22:42.374Z,100251.88
2022-11-21T00:25:09.275Z,100249.84
2022-11-21T00:27:35.844Z,100251.53
2022-11-21T00:30:02.313Z,100251.59
2022-11-21T00:32:28.761Z,100251.00
2022-11-21T00:34:55.189Z,100250.63
2022-11-21T00:37:21.635Z,100241.06
2022-11-21T00:39:48.053Z,100249.88
2022-11-21T00:42:14.526Z,100248.47
2022-11-21T00:44:40.968Z,100252.19
2022-11-21T00:47:07.400Z,100255.19
2022-11-21T00:49:33.895Z,100256.56
2022-11-21T00:52:00.374Z,100256.63
2022-11-21T00:54:27.133Z,100245.16
2022-11-21T00:56:53.751Z,100236.31
2022-11-21T00:59:20.271Z,100238.97
2022-11-21T01:01:46.735Z,100236.94
2022-11-21T01:04:13.208Z,100240.09
2022-11-21T01:06:40.010Z,100244.22
2022-11-21T01:09:06.644Z,100232.66
2022-11-21T01:11:33.192Z,100227.28
2022-11-21T01:13:59.708Z,100227.88
2022-11-21T01:16:27.714Z,100226.56
2022-11-21T01:18:54.307Z,100232.66
2022-11-21T01:21:23.261Z,100221.41
2022-11-21T01:23:50.510Z,100227.44
2022-11-21T01:26:19.927Z,100220.19
2022-11-21T01:28:46.877Z,100225.63
2022-11-21T01:31:24.542Z,100225.22
2022-11-21T01:33:51.584Z,100219.81
2022-11-21T01:36:23.670Z,100212.06
2022-11-21T01:38:51.956Z,100212.97
2022-11-21T01:41:31.428Z,100217.41
2022-11-21T01:43:58.533Z,100223.50
2022-11-21T01:46:25.779Z,100220.94
2022-11-21T01:49:07.127Z,100211.91
2022-11-21T01:51:33.520Z,100220.28
2022-11-21T01:54:07.908Z,100209.66
2022-11-21T01:56:40.171Z,100213.50
2022-11-21T01:59:08.816Z,100226.28
2022-11-21T02:01:36.334Z,100215.81
2022-11-21T02:04:03.629Z,100214.63
2022-11-21T02:06:32.154Z,100204.03
2022-11-21T02:08:59.695Z,100208.72
2022-11-21T02:11:42.693Z,100211.47
2022-11-21T02:14:09.333Z,100208.91
2022-11-21T02:16:35.990Z,100202.22
2022-11-21T02:19:02.605Z,100201.53
2022-11-21T02:22:01.355Z,100207.47
2022-11-21T02:24:51.923Z,100202.41
2022-11-21T02:27:18.714Z,100193.00
2022-11-21T02:29:45.202Z,100186.84
2022-11-21T02:32:21.410Z,100180.69
2022-11-21T02:34:47.874Z,100185.22
2022-11-21T02:37:14.390Z,100170.72
2022-11-21T02:39:41.289Z,100182.75
2022-11-21T02:42:24.975Z,100179.69
2022-11-21T02:45:14.656Z,100185.66
2022-11-21T02:47:41.850Z,100163.56
2022-11-21T02:50:23.957Z,100179.63
2022-11-21T02:52:50.410Z,100169.13
2022-11-21T02:55:17.119Z,100164.97
2022-11-21T02:57:43.630Z,100159.72
2022-11-21T03:00:11.269Z,100164.81
2022-11-21T03:02:38.009Z,100163.47
2022-11-21T03:05:05.977Z,100159.78
2022-11-21T03:07:32.500Z,100169.28
2022-11-21T03:09:58.947Z,100154.59
2022-11-21T03:12:25.440Z,100161.97
2022-11-21T03:14:51.886Z,100153.06
2022-11-21T03:17:18.692Z,100165.09
2022-11-21T03:19:45.199Z,100162.00
2022-11-21T03:22:13.154Z,100160.53
2022-11-21T03:24:39.598Z,100160.72
2022-11-21T03:27:06.088Z,100167.69
2022-11-21T03:29:32.587Z,100166.47
2022-11-21T03:31:59.424Z,100172.59
2022-11-21T03:34:26.164Z,100171.91
2022-11-21T03:36:52.887Z,100163.44
2022-11-21T03:39:19.323Z,100170.91
2022-11-21T03:41:45.799Z,100159.59
2022-11-21T03:44:12.766Z,100162.34
2022-11-21T03:46:41.864Z,100155.81
2022-11-21T03:49:08.947Z,100153.56
2022-11-21T03:51:35.857Z,100145.69
2022-11-21T03:54:02.682Z,100156.63
2022-11-21T03:56:29.433Z,100160.22
2022-11-21T03:58:55.923Z,100147.84
2022-11-21T04:01:23.149Z,100154.38
2022-11-21T04:03:50.264Z,100149.88
2022-11-21T04:06:19.460Z,100152.84
2022-11-21T04:08:45.960Z,100158.91
2022-11-21T04:11:12.598Z,100153.09
2022-11-21T04:13:39.387Z,100158.50
2022-11-21T04:16:06.249Z,100180.16
2022-11-21T04:18:34.042Z,100178.75
2022-11-21T04:21:02.028Z,100175.19
2022-11-21T04:23:28.712Z,100173.34
2022-11-21T04:25:55.358Z,100183.50
2022-11-21T04:28:22.400Z,100166.00
2022-11-21T04:30:49.005Z,100171.72
2022-11-21T04:33:16.423Z,100166.09
2022-11-21T04:35:43.971Z,100167.22
2022-11-21T04:38:11.374Z,100163.88
2022-11-21T04:40:38.213Z,100177.16
2022-11-21T04:43:05.034Z,100163.75
2022-11-21T04:45:31.976Z,100167.06
2022-11-21T04:47:58.390Z,100173.13
2022-11-21T04:50:25.025Z,100174.09
2022-11-21T04:52:56.393Z,100166.59
2022-11-21T04:55:24.987Z,100169.72
2022-11-21T04:57:51.447Z,100169.41
2022-11-21T05:00:23.841Z,100177.13
2022-11-21T05:02:51.053Z,100172.25
2022-11-21T05:05:17.573Z,100174.34
2022-11-21T05:07:44.087Z,100165.66
2022-11-21T05:10:10.623Z,100161.56
2022-11-21T05:12:55.682Z,100158.88
2022-11-21T05:15:24.898Z,100157.63
2022-11-21T05:17:51.758Z,100156.66
2022-11-21T05:20:19.047Z,100159.34
2022-11-21T05:22:49.928Z,100155.50
2022-11-21T05:25:16.829Z,100158.41
2022-11-21T05:27:43.366Z,100160.81
2022-11-21T05:30:11.264Z,100155.03
2022-11-21T05:32:37.871Z,100148.50
2022-11-21T05:35:04.490Z,100151.91
2022-11-21T05:37:30.980Z,100141.75
2022-11-21T05:39:57.536Z,100148.44
2022-11-21T05:42:43.968Z,100144.53
2022-11-21T05:45:10.703Z,100143.50
2022-11-21T05:47:37.287Z,100145.38
2022-11-21T05:50:04.421Z,100142.84
2022-11-21T05:52:30.856Z,100139.25
2022-11-21T05:54:57.356Z,100146.13
2022-11-21T05:57:23.786Z,100150.50
2022-11-21T05:59:50.255Z,100147.38
2022-11-21T06:02:35.323Z,100162.47
2022-11-21T06:05:01.801Z,100154.25
2022-11-21T06:07:28.255Z,100154.03
2022-11-21T06:09:55.107Z,100145.19
2022-11-21T06:12:25.316Z,100145.38
2022-11-21T06:14:52.272Z,100142.56
2022-11-21T06:17:18.774Z,100140.47
2022-11-21T06:19:45.208Z,100142.25
2022-11-21T06:22:11.655Z,100141.16
2022-11-21T06:24:38.105Z,100140.25
2022-11-21T06:27:04.557Z,100141.25
2022-11-21T06:29:30.986Z,100130.59
2022-11-21T06:31:57.491Z,100133.09
2022-11-21T06:34:27.116Z,100133.47
2022-11-21T06:36:53.880Z,100134.59
2022-11-21T06:39:20.330Z,100130.31
2022-11-21T06:41:51.094Z,100128.53
2022-11-21T06:44:18.600Z,100132.72
2022-11-21T06:46:50.762Z,100131.22
2022-11-21T06:49:17.554Z,100122.13
2022-11-21T06:51:44.011Z,100124.84
2022-11-21T06:54:13.866Z,100128.50
2022-11-21T06:56:43.223Z,100130.59
2022-11-21T06:59:09.645Z,100126.97
2022-11-21T07:01:36.177Z,100134.34
2022-11-21T07:04:02.750Z,100133.59
2022-11-21T07:06:29.199Z,100136.22
2022-11-21T07:11:42.439Z,100125.03
2022-11-21T07:14:09.596Z,100133.84
2022-11-21T07:16:36.281Z,100127.22
2022-11-21T07:19:02.768Z,100135.16
2022-11-21T07:21:29.359Z,100133.84
2022-11-21T07:23:55.819Z,100131.72
2022-11-21T07:26:22.337Z,100136.13
2022-11-21T07:28:48.785Z,100137.91
2022-11-21T07:31:15.274Z,100133.34
2022-11-21T07:33:43.527Z,100131.47
2022-11-21T07:36:10.928Z,100123.72
2022-11-21T07:38:37.357Z,100130.91
2022-11-21T07:41:03.976Z,100120.69
2022-11-21T07:43:30.479Z,100111.94
2022-11-21T07:45:56.968Z,100122.28
2022-11-21T07:48:23.446Z,100117.09
2022-11-21T07:50:49.949Z,100118.66
2022-11-21T07:53:16.409Z,100116.31
2022-11-21T07:55:42.900Z,100106.16
2022-11-21T07:58:12.131Z,100112.28
2022-11-21T08:00:42.705Z,100111.38
2022-11-21T08:03:09.396Z,100115.88
2022-11-21T08:05:37.346Z,100107.22
2022-11-21T08:08:04.474Z,100117.03
2022-11-21T08:10:31.070Z,100103.53
2022-11-21T08:12:57.536Z,100112.78
2022-11-21T08:15:24.013Z,100104.06
2022-11-21T08:17:50.484Z,100110.63
2022-11-21T08:20:17.219Z,100107.38
2022-11-21T08:22:43.833Z,100111.22
2022-11-21T08:25:10.782Z,100106.72
2022-11-21T08:27:38.652Z,100107.59
2022-11-21T08:30:09.853Z,100110.81
2022-11-21T08:32:36.598Z,100102.50
2022-11-21T08:35:03.653Z,100096.47
2022-11-21T08:37:30.223Z,100101.63
2022-11-21T08:39:58.970Z,100107.16
2022-11-21T08:42:26.054Z,100111.44
2022-11-21T08:44:52.549Z,100111.56
2022-11-21T08:47:20.552Z,100107.81
2022-11-21T08:49:47.496Z,100109.03
2022-11-21T08:52:14.796Z,100112.38
2022-11-21T08:54:41.338Z,100115.38
2022-11-21T08:57:07.851Z,100112.50
2022-11-21T08:59:34.273Z,100105.44
2022-11-21T09:02:00.917Z,100116.38
2022-11-21T09:04:27.652Z,100107.22
2022-11-21T09:06:54.366Z,100110.97
2022-11-21T09:09:25.370Z,100106.00
2022-11-21T09:11:52.263Z,100108.09
2022-11-21T09:14:37.347Z,100100.53
2022-11-21T09:17:22.528Z,100107.91
2022-11-21T09:19:49.084Z,100109.97
2022-11-21T09:22:15.598Z,100119.78
2022-11-21T09:24:42.078Z,100117.84
2022-11-21T09:27:08.647Z,100121.13
2022-11-21T09:29:35.138Z,100114.13
2022-11-21T09:32:01.726Z,100114.00
2022-11-21T09:34:28.497Z,100113.88
2022-11-21T09:36:55.584Z,100129.66
2022-11-21T09:39:23.020Z,100121.53
2022-11-21T09:41:58.267Z,100112.81
2022-11-21T09:44:33.914Z,100111.53
2022-11-21T09:47:05.504Z,100120.00
2022-11-21T09:49:38.856Z,100113.06
2022-11-21T09:52:05.569Z,100108.84
2022-11-21T09:54:34.662Z,100105.88
2022-11-21T09:57:01.179Z,100106.75
2022-11-21T09:59:38.919Z,100113.59
2022-11-21T10:02:15.837Z,100105.78
2022-11-21T10:04:42.692Z,100105.84
2022-11-21T10:07:24.986Z,100106.34
2022-11-21T10:10:22.527Z,100105.59
2022-11-21T10:12:58.140Z,100106.06
2022-11-21T10:15:38.253Z,100104.75
2022-11-21T10:18:28.007Z,100117.16
2022-11-21T10:21:15.773Z,100114.59
2022-11-21T10:23:42.189Z,100103.66
2022-11-21T10:26:38.600Z,100109.44
2022-11-21T10:29:12.607Z,100102.75
2022-11-21T10:31:40.372Z,100107.59
2022-11-21T10:34:12.506Z,100098.66
2022-11-21T10:36:41.256Z,100094.78
2022-11-21T10:39:14.863Z,100102.28
2022-11-21T10:42:00.680Z,100089.88
2022-11-21T10:44:47.213Z,100088.47
2022-11-21T10:47:14.862Z,100084.50
2022-11-21T10:49:42.456Z,100087.03
2022-11-21T10:52:16.464Z,100087.44
2022-11-21T10:55:04.701Z,100088.69
2022-11-21T10:57:50.951Z,100086.09
2022-11-21T11:00:22.484Z,100089.50
2022-11-21T11:02:55.065Z,100083.78
2022-11-21T11:05:25.432Z,100088.97
2022-11-21T11:08:04.178Z,100077.19
2022-11-21T11:10:32.341Z,100067.84
2022-11-21T11:13:45.282Z,100070.50
2022-11-21T11:16:04.582Z,100071.06
2022-11-21T11:21:20.517Z,100072.97
2022-11-21T11:23:49.056Z,100074.63
2022-11-21T11:26:25.090Z,100058.25
2022-11-21T11:28:51.651Z,100049.47
2022-11-21T11:31:18.317Z,100057.41
2022-11-21T11:33:47.765Z,100059.28
2022-11-21T11:36:17.089Z,100054.91
2022-11-21T11:38:53.659Z,100045.69
2022-11-21T11:41:30.990Z,100040.06
2022-11-21T11:44:28.963Z,100047.34
2022-11-21T11:47:24.418Z,100047.97
2022-11-21T11:50:11.359Z,100034.22
2022-11-21T11:52:49.586Z,100038.63
2022-11-21T11:55:22.372Z,100044.59
2022-11-21T11:57:50.710Z,100034.84
2022-11-21T12:00:32.653Z,100032.84
2022-11-21T12:03:06.235Z,100035.31
2022-11-21T12:05:32.699Z,100022.25
2022-11-21T12:08:40.262Z,100035.09
2022-11-21T12:11:27.441Z,100025.56
2022-11-21T12:13:54.819Z,100023.13
2022-11-21T12:16:21.879Z,100022.13
2022-11-21T12:19:11.130Z,100030.28
2022-11-21T12:21:37.603Z,100027.78
2022-11-21T12:24:04.754Z,100033.59
2022-11-21T12:26:45.521Z,100028.97
2022-11-21T12:29:21.283Z,100020.50
2022-11-21T12:31:59.930Z,100018.88
2022-11-21T12:35:00.488Z,100009.94
2022-11-21T12:37:36.947Z,100008.25
2022-11-21T12:40:21.413Z,100008.09
2022-11-21T12:42:50.881Z,99996.94
2022-11-21T12:45:31.711Z,99990.28
2022-11-21T12:48:25.419Z,99986.41
2022-11-21T12:51:39.688Z,99982.38
2022-11-21T12:54:27.685Z,99979.22
2022-11-21T12:57:21.688Z,99977.44
2022-11-21T13:00:09.786Z,99965.53
2022-11-21T13:03:01.163Z,99969.28
2022-11-21T13:05:30.142Z,99968.47
2022-11-21T13:08:21.287Z,99963.22
2022-11-21T13:11:21.594Z,99961.19
2022-11-21T13:13:49.848Z,99958.06
2022-11-21T13:16:36.952Z,99959.28
2022-11-21T13:19:17.343Z,99957.69
2022-11-21T13:21:51.195Z,99965.13
2022-11-21T13:24:50.090Z,99956.56
2022-11-21T13:27:38.782Z,99950.84
2022-11-21T13:30:09.033Z,99946.38
2022-11-21T13:32:42.144Z,99944.78
2022-11-21T13:35:15.006Z,99945.53
2022-11-21T13:37:59.806Z,99947.28
2022-11-21T13:40:26.238Z,99941.56
2022-11-21T13:43:35.575Z,99945.13
2022-11-21T13:46:02.388Z,99943.47
2022-11-21T13:48:30.425Z,99941.44
2022-11-21T13:51:08.825Z,99932.81
2022-11-21T13:53:57.588Z,99940.09
2022-11-21T13:56:44.758Z,99944.69
2022-11-21T13:59:37.803Z,99936.00
2022-11-21T14:02:32.823Z,99937.41
2022-11-21T14:05:24.028Z,99937.31
2022-11-21T14:07:50.808Z,99930.88
2022-11-21T14:10:33.705Z,99925.72
2022-11-21T14:13:01.800Z,99937.63
2022-11-21T14:15:50.107Z,99923.41
2022-11-21T14:18:23.507Z,99934.28
2022-11-21T14:20:54.034Z,99937.91
2022-11-21T14:23:22.217Z,99938.03
2022-11-21T14:25:51.136Z,99939.66
2022-11-21T14:28:25.018Z,99943.84
2022-11-21T14:31:06.580Z,99943.09
2022-11-21T14:33:34.712Z,99939.13
2022-11-21T14:36:16.098Z,99941.09
2022-11-21T14:39:07.760Z,99941.25
2022-11-21T14:41:36.106Z,99938.84
2022-11-21T14:44:02.818Z,99938.28
2022-11-21T14:46:34.793Z,99947.41
2022-11-21T14:49:21.758Z,99945.59
2022-11-21T14:51:51.375Z,99944.09
2022-11-21T14:54:22.947Z,99961.09
2022-11-21T14:56:56.775Z,99949.84
2022-11-21T14:59:29.346Z,99961.69
2022-11-21T15:01:58.795Z,99958.56
2022-11-21T15:04:44.814Z,99960.97
2022-11-21T15:07:44.094Z,99955.56
2022-11-21T15:10:29.370Z,99954.69
2022-11-21T15:13:00.474Z,99944.56
2022-11-21T15:15:43.946Z,99940.88
2022-11-21T15:18:27.753Z,99941.44
2022-11-21T15:21:00.186Z,99943.72
2022-11-21T15:23:40.112Z,99941.53
2022-11-21T15:26:29.110Z,99944.16
2022-11-21T15:28:57.070Z,99945.41
2022-11-21T15:31:23.756Z,99947.31
2022-11-21T15:37:04.727Z,99952.50
2022-11-21T15:39:31.525Z,99950.94
2022-11-21T15:42:27.350Z,99947.84
2022-11-21T15:45:04.268Z,99942.84
2022-11-21T15:47:30.811Z,99937.28
2022-11-21T15:49:57.385Z,99935.16
2022-11-21T15:52:23.976Z,99940.69
2022-11-21T15:54:50.560Z,99936.72
2022-11-21T15:59:50.171Z,99929.34
2022-11-21T16:02:16.615Z,99923.19
2022-11-21T16:04:43.135Z,99931.19
2022-11-21T16:07:09.640Z,99922.00
2022-11-21T16:09:37.373Z,99921.22
2022-11-21T16:12:04.036Z,99912.47
2022-11-21T16:14:30.806Z,99923.78
2022-11-21T16:16:57.243Z,99927.28
2022-11-21T16:19:23.704Z,99926.47
2022-11-21T16:21:50.146Z,99919.56
2022-11-21T16:24:16.793Z,99908.19
2022-11-21T16:26:43.226Z,99917.50
2022-11-21T16:29:10.765Z,99909.03
2022-11-21T16:31:37.236Z,99908.16
2022-11-21T16:34:03.769Z,99897.38
2022-11-21T16:36:31.472Z,99887.06
2022-11-21T16:39:05.167Z,99890.53
2022-11-21T16:41:35.084Z,99879.72
2022-11-21T16:44:01.541Z,99881.84
2022-11-21T16:46:28.020Z,99884.81
2022-11-21T16:49:00.577Z,99880.53
2022-11-21T16:51:27.854Z,99889.44
2022-11-21T16:53:54.629Z,99885.16
2022-11-21T16:56:21.136Z,99882.53
2022-11-21T16:58:47.669Z,99882.25
2022-11-21T17:01:16.260Z,99876.00
2022-11-21T17:03:44.082Z,99872.94
2022-11-21T17:06:13.683Z,99872.63
2022-11-21T17:08:40.215Z,99871.59
2022-11-21T17:11:21.919Z,99877.84
2022-11-21T17:13:49.900Z,99874.69
2022-11-21T17:16:18.224Z,99872.53
2022-11-21T17:18:45.197Z,99862.13
2022-11-21T17:21:13.899Z,99877.50
2022-11-21T17:23:42.309Z,99872.41
2022-11-21T17:26:11.214Z,99871.31
2022-11-21T17:28:43.982Z,99872.66
2022-11-21T17:31:14.571Z,99881.47
2022-11-21T17:33:41.380Z,99878.72
2022-11-21T17:36:12.208Z,99880.75
2022-11-21T17:38:39.896Z,99878.41
2022-11-21T17:41:07.942Z,99874.97
2022-11-21T17:43:34.891Z,99877.50
2022-11-21T17:46:09.136Z,99870.81
2022-11-21T17:48:37.196Z,99883.22
2022-11-21T17:51:10.587Z,99880.28
2022-11-21T17:53:39.941Z,99886.91
2022-11-21T17:56:07.491Z,99885.13
2022-11-21T17:58:34.310Z,99885.19
2022-11-21T18:01:03.459Z,99883.66
2022-11-21T18:03:30.128Z,99886.50
2022-11-21T18:06:02.168Z,99867.16
2022-11-21T18:08:33.408Z,99880.16
2022-11-21T18:11:00.091Z,99875.34
2022-11-21T18:13:28.105Z,99871.44
2022-11-21T18:15:54.836Z,99871.09
2022-11-21T18:18:21.357Z,99872.25
2022-11-21T18:20:47.834Z,99872.34
2022-11-21T18:23:15.070Z,99872.69
2022-11-21T18:25:41.793Z,99878.03
2022-11-21T18:28:08.504Z,99865.31
2022-11-21T18:30:35.588Z,99865.97
2022-11-21T18:33:03.204Z,99862.38
2022-11-21T18:35:29.783Z,99858.56
2022-11-21T18:37:58.063Z,99854.47
2022-11-21T18:40:25.036Z,99860.91
2022-11-21T18:42:51.811Z,99849.66
2022-11-21T18:45:18.402Z,99844.09
2022-11-21T18:47:47.927Z,99846.88
2022-11-21T18:50:15.747Z,99838.13
2022-11-21T18:52:46.441Z,99834.91
2022-11-21T18:55:13.462Z,99828.13
2022-11-21T18:57:42.886Z,99824.16
2022-11-21T19:00:10.360Z,99823.41
2022-11-21T19:02:37.449Z,99827.31
2022-11-21T19:05:04.265Z,99824.97
2022-11-21T19:07:30.970Z,99827.50
2022-11-21T19:10:20.338Z,99822.50
2022-11-21T19:12:43.955Z,99820.16
2022-11-21T19:15:11.697Z,99816.88
2022-11-21T19:17:38.801Z,99807.50
2022-11-21T19:20:05.726Z,99798.09
2022-11-21T19:22:32.164Z,99802.91
2022-11-21T19:24:58.874Z,99809.41
2022-11-21T19:27:25.425Z,99794.41
2022-11-21T19:29:54.979Z,99791.59
2022-11-21T19:32:21.684Z,99793.25
2022-11-21T19:34:48.134Z,99793.38
2022-11-21T19:37:14.593Z,99788.91
2022-11-21T19:39:41.146Z,99793.50
2022-11-21T19:42:07.688Z,99787.97
2022-11-21T19:44:34.147Z,99767.25
2022-11-21T19:47:00.598Z,99775.75
2022-11-21T19:49:27.324Z,99763.25
2022-11-21T19:51:53.958Z,99763.00
2022-11-21T19:54:20.410Z,99763.66
2022-11-21T19:56:46.906Z,99756.06
2022-11-21T19:59:13.708Z,99754.34
2022-11-21T20:01:40.747Z,99747.81
2022-11-21T20:04:07.436Z,99740.63
2022-11-21T20:06:39.079Z,99753.69
2022-11-21T20:09:14.682Z,99736.94
2022-11-21T20:11:42.522Z,99750.84
2022-11-21T20:14:09.132Z,99757.59
2022-11-21T20:16:42.164Z,99760.66
2022-11-21T20:19:10.731Z,99764.38
2022-11-21T20:21:37.823Z,99762.50
2022-11-21T20:24:05.345Z,99759.19
2022-11-21T20:26:32.269Z,99767.91
2022-11-21T20:28:58.909Z,99760.16
2022-11-21T20:31:30.249Z,99763.56
2022-11-21T20:34:02.239Z,99773.31
2022-11-21T20:36:30.768Z,99777.09
2022-11-21T20:39:01.170Z,99777.31
2022-11-21T20:41:30.038Z,99773.84
2022-11-21T20:46:45.234Z,99773.56
2022-11-21T20:49:12.491Z,99766.84
2022-11-21T20:54:26.381Z,99786.84
2022-11-21T20:56:53.000Z,99786.16
2022-11-21T20:59:19.448Z,99782.94
2022-11-21T21:01:45.969Z,99785.75
2022-11-21T21:04:12.554Z,99782.34
2022-11-21T21:06:39.611Z,99786.09
2022-11-21T21:09:06.112Z,99783.56
2022-11-21T21:14:19.061Z,99794.16
2022-11-21T21:16:45.582Z,99775.44
2022-11-21T21:19:12.028Z,99794.47
2022-11-21T21:21:40.175Z,99780.69
2022-11-21T21:24:08.127Z,99779.00
2022-11-21T21:26:42.273Z,99784.47
2022-11-21T21:29:11.484Z,99779.44
2022-11-21T21:31:37.916Z,99786.47
2022-11-21T21:34:04.422Z,99787.13
2022-11-21T21:36:32.282Z,99783.53
2022-11-21T21:38:59.970Z,99784.47
2022-11-21T21:41:27.982Z,99791.47
2022-11-21T21:43:55.774Z,99782.00
2022-11-21T21:46:24.468Z,99780.63
2022-11-21T21:48:56.233Z,99772.94
2022-11-21T21:51:27.896Z,99765.59
2022-11-21T21:53:55.804Z,99758.25
2022-11-21T21:56:23.243Z,99766.63
2022-11-21T21:58:50.329Z,99759.28
2022-11-21T22:01:18.914Z,99756.16
2022-11-21T22:03:46.889Z,99750.44
2022-11-21T22:06:16.193Z,99741.34
2022-11-21T22:08:43.834Z,99738.09
2022-11-21T22:11:12.473Z,99742.84
2022-11-21T22:13:40.783Z,99749.09
2022-11-21T22:16:09.188Z,99748.56
2022-11-21T22:18:39.558Z,99750.72
2022-11-21T22:21:32.574Z,99737.72
2022-11-21T22:26:50.254Z,99748.25
2022-11-21T22:29:16.946Z,99727.16
2022-11-21T22:31:43.741Z,99735.78
2022-11-21T22:34:13.431Z,99731.59
2022-11-21T22:36:43.391Z,99738.00
2022-11-21T22:39:10.549Z,99748.44
2022-11-21T22:41:37.350Z,99748.59
2022-11-21T22:44:04.510Z,99747.53
2022-11-21T22:46:31.707Z,99758.34
2022-11-21T22:48:59.170Z,99759.78
2022-11-21T22:51:29.996Z,99763.59
2022-11-21T22:53:57.745Z,99753.47
2022-11-21T22:56:25.155Z,99752.06
2022-11-21T22:58:52.027Z,99746.84
2022-11-21T23:01:21.220Z,99767.16
2022-11-21T23:03:49.097Z,99759.81
2022-11-21T23:06:21.280Z,99752.38
2022-11-21T23:08:48.228Z,99750.34
2022-11-21T23:11:22.750Z,99749.59
2022-11-21T23:13:51.611Z,99743.38
2022-11-21T23:16:18.865Z,99744.63
2022-11-21T23:18:45.873Z,99732.91
2022-11-21T23:23:40.368Z,99730.69
2022-11-21T23:26:07.411Z,99726.59
2022-11-21T23:28:34.077Z,99726.22
2022-11-21T23:31:00.784Z,99720.69
2022-11-21T23:33:27.307Z,99729.31
2022-11-21T23:35:53.773Z,99731.06
2022-11-21T23:38:21.235Z,99731.00
2022-11-21T23:40:48.612Z,99729.47
2022-11-21T23:43:15.956Z,99715.91
2022-11-21T23:45:42.822Z,99728.66
2022-11-21T23:48:09.459Z,99726.75
2022-11-21T23:50:35.945Z,99737.72
2022-11-21T23:53:02.584Z,99730.75
2022-11-21T23:55:29.081Z,99724.81
2022-11-21T23:57:55.515Z,99720.53
